createdAt,value
2022-09-03T00:00:17.999Z,2.93
2022-09-03T00:03:15.774Z,2.70
2022-09-03T00:06:20.680Z,2.70
2022-09-03T00:09:14.992Z,3.03
2022-09-03T00:12:06.783Z,3.00
2022-09-03T00:14:57.261Z,3.57
2022-09-03T00:17:53.716Z,3.00
2022-09-03T00:20:50.365Z,3.10
2022-09-03T00:23:39.271Z,2.53
2022-09-03T00:26:31.394Z,3.20
2022-09-03T00:29:47.650Z,3.03
2022-09-03T00:32:48.961Z,3.03
2022-09-03T00:35:36.337Z,3.00
2022-09-03T00:38:28.639Z,3.27
2022-09-03T00:41:24.135Z,2.93
2022-09-03T00:44:09.898Z,3.27
2022-09-03T00:46:57.773Z,2.90
2022-09-03T00:50:09.534Z,2.77
2022-09-03T00:53:03.073Z,2.83
2022-09-03T00:55:57.123Z,3.50
2022-09-03T00:59:03.366Z,3.13
2022-09-03T01:01:52.666Z,2.70
2022-09-03T01:04:41.980Z,3.00
2022-09-03T01:07:39.056Z,3.03
2022-09-03T01:10:28.123Z,3.50
2022-09-03T01:13:29.507Z,3.30
2022-09-03T01:16:27.627Z,2.87
2022-09-03T01:19:27.575Z,3.10
2022-09-03T01:22:32.588Z,3.77
2022-09-03T01:25:32.186Z,3.10
2022-09-03T01:28:20.355Z,3.00
2022-09-03T01:31:27.330Z,3.00
2022-09-03T01:34:22.216Z,2.80
2022-09-03T01:37:15.243Z,2.73
2022-09-03T01:40:04.972Z,2.97
2022-09-03T01:42:52.859Z,2.77
2022-09-03T01:45:56.177Z,3.30
2022-09-03T01:48:44.338Z,3.00
2022-09-03T01:51:31.848Z,2.80
2022-09-03T01:54:42.155Z,3.00
2022-09-03T01:57:37.399Z,2.90
2022-09-03T02:00:24.842Z,4.67
2022-09-03T02:03:12.443Z,2.73
2022-09-03T02:05:58.163Z,3.10
2022-09-03T02:08:44.652Z,2.87
2022-09-03T02:11:31.150Z,3.30
2022-09-03T02:14:20.282Z,3.10
2022-09-03T02:17:10.859Z,2.80
2022-09-03T02:19:57.578Z,2.90
2022-09-03T02:22:46.117Z,3.00
2022-09-03T02:25:36.430Z,3.00
2022-09-03T02:28:22.794Z,3.03
2022-09-03T02:31:09.383Z,2.63
2022-09-03T02:33:56.736Z,3.13
2022-09-03T02:36:46.175Z,2.70
2022-09-03T02:39:35.091Z,2.90
2022-09-03T02:42:25.405Z,2.90
2022-09-03T02:45:28.963Z,2.50
2022-09-03T02:48:18.436Z,3.47
2022-09-03T02:51:13.823Z,2.97
2022-09-03T02:54:00.253Z,2.97
2022-09-03T02:56:49.973Z,2.90
2022-09-03T02:59:37.534Z,3.23
2022-09-03T03:02:24.476Z,3.07
2022-09-03T03:05:16.273Z,2.80
2022-09-03T03:08:02.580Z,3.30
2022-09-03T03:10:49.524Z,3.50
2022-09-03T03:13:38.834Z,2.87
2022-09-03T03:16:24.934Z,2.70
2022-09-03T03:19:11.564Z,3.10
2022-09-03T03:21:59.627Z,3.70
2022-09-03T03:24:45.677Z,2.97
2022-09-03T03:27:31.960Z,2.80
2022-09-03T03:30:17.545Z,2.60
2022-09-03T03:33:04.313Z,2.80
2022-09-03T03:35:50.615Z,2.80
2022-09-03T03:38:37.170Z,3.10
2022-09-03T03:41:24.786Z,2.90
2022-09-03T03:44:10.563Z,3.33
2022-09-03T03:46:56.456Z,3.03
2022-09-03T03:49:44.374Z,3.10
2022-09-03T03:52:34.885Z,3.00
2022-09-03T03:55:20.980Z,3.07
2022-09-03T03:58:08.353Z,2.37
2022-09-03T04:00:55.835Z,3.23
2022-09-03T04:03:42.738Z,3.20
2022-09-03T04:06:29.034Z,2.83
2022-09-03T04:09:15.017Z,2.90
2022-09-03T04:12:01.245Z,2.77
2022-09-03T04:14:48.200Z,3.07
2022-09-03T04:17:33.830Z,2.70
2022-09-03T04:20:21.273Z,3.40
2022-09-03T04:23:07.619Z,3.07
2022-09-03T04:25:56.207Z,3.40
2022-09-03T04:28:45.543Z,3.20
2022-09-03T04:31:32.299Z,3.40
2022-09-03T04:34:17.865Z,4.07
2022-09-03T04:37:04.965Z,3.20
2022-09-03T04:39:51.445Z,3.40
2022-09-03T04:42:37.902Z,3.47
2022-09-03T04:45:25.732Z,3.40
2022-09-03T04:48:13.590Z,3.40
2022-09-03T04:51:10.375Z,2.93
2022-09-03T04:53:57.950Z,3.20
2022-09-03T04:56:43.436Z,2.70
2022-09-03T04:59:29.755Z,3.30
2022-09-03T05:02:17.637Z,3.33
2022-09-03T05:05:03.751Z,3.23
2022-09-03T05:07:51.014Z,3.23
2022-09-03T05:10:36.612Z,3.43
2022-09-03T05:13:23.892Z,3.30
2022-09-03T05:16:11.289Z,3.60
2022-09-03T05:19:01.607Z,3.40
2022-09-03T05:21:47.539Z,3.80
2022-09-03T05:24:33.289Z,3.33
2022-09-03T05:27:19.257Z,3.40
2022-09-03T05:30:05.285Z,3.50
2022-09-03T05:32:51.439Z,3.20
2022-09-03T05:35:37.256Z,3.00
2022-09-03T05:38:23.169Z,3.30
2022-09-03T05:41:10.407Z,3.37
2022-09-03T05:44:03.244Z,4.80
2022-09-03T05:46:50.683Z,4.40
2022-09-03T05:49:36.993Z,3.37
2022-09-03T05:52:25.508Z,3.93
2022-09-03T05:55:13.652Z,4.10
2022-09-03T05:58:03.345Z,3.33
2022-09-03T06:00:49.481Z,6.90
2022-09-03T06:03:37.183Z,3.43
2022-09-03T06:06:27.050Z,3.20
2022-09-03T06:09:15.385Z,3.77
2022-09-03T06:12:03.957Z,3.60
2022-09-03T06:14:50.304Z,3.77
2022-09-03T06:17:38.315Z,3.50
2022-09-03T06:20:28.078Z,3.40
2022-09-03T06:23:13.737Z,3.30
2022-09-03T06:26:05.595Z,3.30
2022-09-03T06:28:54.960Z,3.30
2022-09-03T06:31:40.969Z,4.10
2022-09-03T06:34:31.088Z,3.60
2022-09-03T06:37:18.566Z,3.43
2022-09-03T06:40:05.575Z,3.17
2022-09-03T06:43:00.800Z,3.10
2022-09-03T06:45:53.558Z,3.37
2022-09-03T06:48:40.713Z,3.40
2022-09-03T06:51:28.205Z,3.37
2022-09-03T06:54:15.724Z,3.27
2022-09-03T06:57:01.743Z,3.10
2022-09-03T06:59:47.626Z,4.00
2022-09-03T07:02:33.587Z,3.50
2022-09-03T07:05:19.428Z,3.00
2022-09-03T07:08:05.448Z,3.63
2022-09-03T07:10:51.257Z,4.23
2022-09-03T07:13:37.545Z,3.83
2022-09-03T07:16:24.720Z,3.37
2022-09-03T07:19:20.374Z,3.83
2022-09-03T07:22:07.572Z,3.27
2022-09-03T07:24:53.875Z,4.03
2022-09-03T07:27:40.578Z,4.23
2022-09-03T07:30:26.666Z,12.53
2022-09-03T07:33:14.020Z,3.37
2022-09-03T07:36:04.470Z,3.80
2022-09-03T07:38:52.626Z,4.27
2022-09-03T07:41:38.315Z,5.40
2022-09-03T07:44:24.407Z,4.90
2022-09-03T07:47:09.932Z,3.80
2022-09-03T07:49:55.965Z,4.40
2022-09-03T07:52:41.632Z,4.30
2022-09-03T07:55:28.117Z,4.30
2022-09-03T07:58:15.138Z,4.53
2022-09-03T08:01:05.112Z,4.17
2022-09-03T08:03:53.214Z,4.27
2022-09-03T08:06:40.736Z,4.90
2022-09-03T08:09:28.424Z,4.00
2022-09-03T08:12:15.215Z,4.30
2022-09-03T08:15:01.327Z,4.00
2022-09-03T08:17:46.738Z,3.83
2022-09-03T08:20:34.203Z,4.60
2022-09-03T08:23:20.089Z,4.07
2022-09-03T08:26:06.964Z,4.60
2022-09-03T08:28:53.876Z,3.77
2022-09-03T08:31:41.031Z,4.40
2022-09-03T08:34:28.350Z,5.03
2022-09-03T08:37:13.864Z,4.80
2022-09-03T08:40:01.220Z,5.50
2022-09-03T08:42:57.930Z,5.07
2022-09-03T08:45:44.236Z,4.90
2022-09-03T08:48:30.414Z,5.20
2022-09-03T08:51:18.043Z,5.60
2022-09-03T08:54:08.635Z,6.20
2022-09-03T08:56:57.054Z,4.73
2022-09-03T08:59:44.907Z,6.63
2022-09-03T09:02:42.831Z,6.97
2022-09-03T09:05:32.078Z,6.47
2022-09-03T09:08:22.736Z,6.83
2022-09-03T09:11:11.474Z,6.63
2022-09-03T09:14:03.801Z,6.80
2022-09-03T09:17:00.875Z,7.00
2022-09-03T09:19:50.642Z,7.80
2022-09-03T09:22:47.139Z,7.60
2022-09-03T09:25:39.101Z,7.90
2022-09-03T09:28:27.607Z,6.23
2022-09-03T09:31:20.737Z,5.70
2022-09-03T09:34:08.776Z,5.70
2022-09-03T09:36:56.569Z,7.30
2022-09-03T09:40:01.782Z,6.43
2022-09-03T09:42:47.515Z,6.83
2022-09-03T09:45:34.985Z,6.20
2022-09-03T09:48:23.996Z,6.40
2022-09-03T09:51:10.164Z,5.73
2022-09-03T09:54:16.395Z,5.90
2022-09-03T09:57:03.994Z,5.80
2022-09-03T09:59:50.935Z,5.47
2022-09-03T10:02:38.071Z,6.20
2022-09-03T10:05:30.570Z,5.73
2022-09-03T10:08:21.178Z,6.20
2022-09-03T10:11:07.795Z,7.03
2022-09-03T10:13:54.250Z,6.20
2022-09-03T10:16:41.883Z,5.90
2022-09-03T10:19:44.374Z,6.57
2022-09-03T10:22:31.623Z,6.80
2022-09-03T10:25:24.256Z,7.17
2022-09-03T10:28:13.362Z,5.80
2022-09-03T10:31:18.937Z,6.60
2022-09-03T10:34:16.814Z,6.30
2022-09-03T10:37:04.905Z,6.17
2022-09-03T10:40:09.640Z,6.27
2022-09-03T10:43:00.937Z,7.03
2022-09-03T10:45:48.699Z,6.10
2022-09-03T10:48:43.865Z,6.20
2022-09-03T10:51:38.750Z,6.83
2022-09-03T10:54:35.617Z,6.50
2022-09-03T10:57:33.687Z,6.13
2022-09-03T11:00:20.382Z,6.67
2022-09-03T11:03:12.750Z,5.40
2022-09-03T11:05:58.656Z,5.67
2022-09-03T11:08:46.669Z,5.30
2022-09-03T11:11:37.683Z,5.60
2022-09-03T11:14:33.025Z,7.63
2022-09-03T11:17:22.318Z,6.67
2022-09-03T11:20:10.284Z,6.30
2022-09-03T11:23:01.988Z,5.87
2022-09-03T11:25:52.907Z,6.07
2022-09-03T11:28:53.313Z,6.60
2022-09-03T11:31:51.637Z,6.20
2022-09-03T11:34:51.068Z,6.03
2022-09-03T11:37:45.942Z,6.60
2022-09-03T11:40:35.831Z,7.17
2022-09-03T11:43:24.785Z,7.17
2022-09-03T11:46:28.950Z,8.60
2022-09-03T11:49:26.640Z,7.23
2022-09-03T11:52:12.239Z,5.60
2022-09-03T11:54:59.436Z,5.37
2022-09-03T11:57:45.964Z,7.10
2022-09-03T12:00:32.977Z,7.70
2022-09-03T12:03:28.494Z,7.03
2022-09-03T12:06:26.858Z,7.33
2022-09-03T12:09:31.007Z,6.70
2022-09-03T12:12:19.158Z,7.47
2022-09-03T12:15:24.277Z,6.00
2022-09-03T12:18:23.399Z,5.47
2022-09-03T12:21:11.402Z,6.43
2022-09-03T12:24:02.953Z,5.10
2022-09-03T12:26:48.635Z,6.80
2022-09-03T12:29:36.891Z,5.27
2022-09-03T12:32:31.375Z,5.83
2022-09-03T12:38:29.893Z,5.73
2022-09-03T12:41:23.514Z,6.10
2022-09-03T12:44:13.784Z,6.03
2022-09-03T12:50:12.938Z,6.47
2022-09-03T12:53:05.848Z,5.83
2022-09-03T12:55:56.967Z,6.30
2022-09-03T12:58:51.447Z,9.43
2022-09-03T13:01:42.681Z,7.00
2022-09-03T13:04:32.494Z,5.30
2022-09-03T13:07:30.241Z,4.60
2022-09-03T13:10:32.304Z,6.77
2022-09-03T13:13:36.655Z,7.93
2022-09-03T13:16:42.546Z,6.07
2022-09-03T13:19:40.550Z,5.07
2022-09-03T13:22:35.739Z,5.27
2022-09-03T13:25:43.038Z,5.13
2022-09-03T13:28:35.996Z,5.77
2022-09-03T13:31:39.477Z,5.27
2022-09-03T13:34:38.285Z,5.80
2022-09-03T13:37:27.456Z,5.20
2022-09-03T13:40:19.999Z,6.43
2022-09-03T13:43:27.719Z,6.63
2022-09-03T13:46:19.577Z,4.90
2022-09-03T13:49:30.305Z,5.00
2022-09-03T13:52:22.639Z,4.77
2022-09-03T13:55:28.465Z,4.80
2022-09-03T13:58:17.289Z,5.83
2022-09-03T14:01:23.449Z,5.40
2022-09-03T14:04:15.444Z,4.93
2022-09-03T14:07:04.556Z,5.23
2022-09-03T14:10:04.357Z,4.30
2022-09-03T14:12:54.587Z,5.07
2022-09-03T14:15:59.100Z,4.57
2022-09-03T14:18:51.348Z,4.77
2022-09-03T14:21:44.391Z,4.57
2022-09-03T14:24:48.746Z,4.50
2022-09-03T14:27:35.900Z,4.43
2022-09-03T14:30:41.338Z,4.60
2022-09-03T14:33:34.683Z,4.13
2022-09-03T14:36:30.704Z,3.47
2022-09-03T14:39:34.279Z,4.20
2022-09-03T14:42:46.621Z,4.50
2022-09-03T14:45:52.052Z,5.03
2022-09-03T14:48:49.149Z,4.17
2022-09-03T14:51:38.315Z,4.10
2022-09-03T14:54:44.188Z,4.07
2022-09-03T14:57:54.904Z,3.90
2022-09-03T15:01:03.670Z,3.90
2022-09-03T15:03:51.166Z,3.67
2022-09-03T15:06:47.539Z,4.80
2022-09-03T15:09:41.019Z,3.50
2022-09-03T15:12:33.899Z,3.60
2022-09-03T15:15:34.188Z,4.40
2022-09-03T15:18:28.357Z,3.80
2022-09-03T15:21:35.249Z,4.73
2022-09-03T15:24:31.977Z,3.80
2022-09-03T15:27:36.286Z,4.43
2022-09-03T15:30:22.167Z,3.43
2022-09-03T15:33:16.374Z,3.63
2022-09-03T15:36:38.666Z,4.53
2022-09-03T15:39:29.949Z,3.10
2022-09-03T15:42:23.780Z,3.00
2022-09-03T15:45:19.746Z,3.83
2022-09-03T15:48:13.493Z,3.20
2022-09-03T15:51:09.926Z,5.20
2022-09-03T15:53:58.748Z,4.30
2022-09-03T15:57:06.396Z,3.70
2022-09-03T15:59:56.151Z,3.43
2022-09-03T16:02:48.244Z,4.23
2022-09-03T16:05:39.279Z,3.27
2022-09-03T16:08:34.380Z,3.40
2022-09-03T16:11:35.700Z,3.60
2022-09-03T16:14:24.226Z,3.97
2022-09-03T16:17:29.964Z,3.30
2022-09-03T16:20:20.267Z,4.20
2022-09-03T16:23:17.613Z,4.17
2022-09-03T16:26:22.172Z,3.63
2022-09-03T16:29:10.784Z,4.80
2022-09-03T16:32:18.304Z,4.03
2022-09-03T16:35:27.101Z,3.90
2022-09-03T16:38:12.857Z,4.20
2022-09-03T16:41:19.281Z,3.60
2022-09-03T16:44:13.700Z,4.23
2022-09-03T16:47:04.844Z,4.27
2022-09-03T16:50:05.013Z,4.70
2022-09-03T16:53:10.539Z,3.80
2022-09-03T16:56:11.700Z,4.10
2022-09-03T16:59:02.004Z,4.77
2022-09-03T17:01:52.351Z,4.33
2022-09-03T17:04:44.894Z,3.97
2022-09-03T17:07:35.425Z,4.23
2022-09-03T17:10:31.467Z,4.80
2022-09-03T17:13:57.226Z,4.43
2022-09-03T17:17:17.930Z,4.40
2022-09-03T17:20:22.187Z,4.70
2022-09-03T17:23:09.811Z,4.70
2022-09-03T17:26:07.665Z,4.27
2022-09-03T17:29:20.851Z,3.10
2022-09-03T17:32:17.231Z,2.60
2022-09-03T17:35:22.660Z,3.10
2022-09-03T17:38:31.890Z,2.33
2022-09-03T17:41:34.421Z,1.97
2022-09-03T17:44:32.936Z,2.07
2022-09-03T17:47:38.145Z,2.50
2022-09-03T17:50:25.584Z,2.03
2022-09-03T17:53:33.498Z,2.10
2022-09-03T17:56:26.409Z,2.50
2022-09-03T17:59:19.467Z,2.27
2022-09-03T18:02:26.688Z,2.27
2022-09-03T18:05:26.528Z,2.13
2022-09-03T18:08:21.510Z,3.00
2022-09-03T18:11:22.275Z,2.33
2022-09-03T18:14:33.378Z,2.40
2022-09-03T18:17:28.223Z,2.80
2022-09-03T18:20:33.833Z,4.47
2022-09-03T18:23:51.694Z,4.07
2022-09-03T18:27:03.272Z,2.43
2022-09-03T18:30:23.478Z,2.57
2022-09-03T18:33:28.511Z,2.00
2022-09-03T18:36:34.065Z,1.67
2022-09-03T18:39:46.922Z,2.00
2022-09-03T18:42:54.721Z,1.80
2022-09-03T18:49:48.220Z,1.77
2022-09-03T18:53:03.594Z,1.60
2022-09-03T18:56:27.249Z,1.93
2022-09-03T18:59:47.741Z,2.10
2022-09-03T19:03:04.553Z,2.63
2022-09-03T19:06:24.222Z,2.47
2022-09-03T19:09:43.991Z,2.90
2022-09-03T19:12:50.079Z,2.80
2022-09-03T19:16:10.935Z,2.20
2022-09-03T19:19:21.428Z,2.40
2022-09-03T19:22:30.024Z,2.60
2022-09-03T19:25:35.241Z,2.73
2022-09-03T19:28:41.528Z,2.70
2022-09-03T19:31:49.445Z,2.50
2022-09-03T19:34:55.319Z,2.20
2022-09-03T19:38:04.427Z,2.13
2022-09-03T19:41:30.343Z,2.37
2022-09-03T19:44:38.598Z,2.33
2022-09-03T19:47:50.004Z,2.40
2022-09-03T19:50:58.760Z,2.00
2022-09-03T19:54:05.492Z,2.40
2022-09-03T20:00:39.051Z,2.60
2022-09-03T20:03:44.129Z,2.40
2022-09-03T20:06:50.731Z,2.50
2022-09-03T20:09:59.561Z,2.30
2022-09-03T20:12:50.675Z,2.40
2022-09-03T20:15:43.884Z,2.30
2022-09-03T20:18:31.589Z,2.40
2022-09-03T20:21:34.648Z,2.20
2022-09-03T20:24:44.591Z,2.50
2022-09-03T20:27:41.745Z,2.93
2022-09-03T20:30:43.614Z,3.00
2022-09-03T20:33:44.825Z,2.63
2022-09-03T20:36:49.705Z,3.00
2022-09-03T20:39:42.718Z,3.20
2022-09-03T20:42:30.601Z,2.80
2022-09-03T20:45:23.380Z,2.63
2022-09-03T20:48:21.748Z,2.50
2022-09-03T20:51:18.383Z,2.47
2022-09-03T20:54:06.109Z,2.83
2022-09-03T20:57:10.784Z,3.33
2022-09-03T21:00:07.023Z,2.87
2022-09-03T21:03:03.852Z,3.13
2022-09-03T21:06:08.715Z,3.13
2022-09-03T21:09:21.120Z,2.83
2022-09-03T21:12:12.369Z,3.20
2022-09-03T21:15:05.636Z,2.83
2022-09-03T21:18:00.760Z,3.07
2022-09-03T21:21:04.235Z,2.60
2022-09-03T21:24:01.710Z,3.10
2022-09-03T21:26:52.306Z,2.60
2022-09-03T21:29:41.513Z,3.50
2022-09-03T21:35:50.898Z,3.50
2022-09-03T21:38:39.211Z,3.60
2022-09-03T21:41:32.584Z,3.40
2022-09-03T21:44:23.968Z,4.17
2022-09-03T21:47:11.879Z,4.57
2022-09-03T21:50:11.961Z,3.57
2022-09-03T21:53:12.354Z,4.03
2022-09-03T21:56:01.434Z,4.00
2022-09-03T21:59:04.708Z,4.30
2022-09-03T22:02:12.760Z,3.87
2022-09-03T22:05:00.133Z,3.70
2022-09-03T22:07:55.110Z,4.60
2022-09-03T22:10:54.101Z,6.03
2022-09-03T22:13:50.884Z,3.93
2022-09-03T22:16:44.953Z,3.73
2022-09-03T22:19:38.476Z,3.50
2022-09-03T22:22:40.680Z,4.17
2022-09-03T22:25:29.919Z,4.20
2022-09-03T22:28:20.843Z,4.37
2022-09-03T22:31:15.935Z,3.63
2022-09-03T22:34:12.184Z,4.23
2022-09-03T22:37:14.545Z,4.00
2022-09-03T22:40:07.141Z,3.43
2022-09-03T22:43:12.345Z,3.43
2022-09-03T22:46:15.110Z,3.20
2022-09-03T22:49:19.736Z,3.20
2022-09-03T22:52:14.754Z,3.03
2022-09-03T22:55:11.725Z,3.93
2022-09-03T22:57:57.816Z,3.30
2022-09-03T23:00:51.818Z,3.50
2022-09-03T23:03:45.879Z,3.37
2022-09-03T23:06:38.444Z,4.23
2022-09-03T23:09:28.255Z,4.03
2022-09-03T23:12:26.379Z,2.80
2022-09-03T23:15:30.200Z,2.90
2022-09-03T23:18:27.095Z,2.60
2022-09-03T23:21:22.017Z,2.53
2022-09-03T23:24:12.898Z,2.53
2022-09-03T23:27:00.493Z,2.47
2022-09-03T23:29:49.374Z,2.60
2022-09-03T23:32:35.504Z,2.67
2022-09-03T23:35:24.258Z,2.63
2022-09-03T23:38:16.748Z,2.53
2022-09-03T23:41:07.463Z,2.23
2022-09-03T23:43:54.296Z,2.63
2022-09-03T23:46:59.433Z,2.77
2022-09-03T23:50:03.302Z,2.60
2022-09-03T23:53:04.558Z,2.60
2022-09-03T23:56:02.449Z,2.60
2022-09-03T23:59:03.259Z,3.97
